Terminal Aerodrome Forecast
Issued by NWS

Home | Current Version | Previous Version | Text Only | Print | Product List | Glossary On
Versions: 1 2 3 4 5 6 7 8 9 10 11 12 13 14 15 16 17 18 19 20 21 22 23 24 25 26
000
FTUS41 KPBZ 170800 AAA
TAFAGC
TAF AMD
KAGC 170857Z 1709/1806 12010KT P6SM BKN250
     FM171500 16010G18KT P6SM BKN250
     FM180000 12006KT P6SM SCT250=

USA.gov is the U.S. government's official web portal to all federal, state and local government web resources and services.